Lewiston Nez Perce County Airport
KLWS : now visible

Airfield :











YOU CAN JOIN US ON...

 
LOGIN :

Register | Disclaimer

   EN    FR    IT 

 









Legend :    VFR   Marginal VFR   IFR   Intensive IFR   Very Intensive IFR
Visi :
Ceiling :
>= 8 km
>= 3000ft
5 to 8 km
1000 to 3000 ft
1500m to 5 km
500 to 1000 ft
800 to 1500m
200 to 500 ft
< 800m
< 200 ft
Symbols :   Thunderstorms  Fog  Heavy snow  Heavy precipitations  Wind > 20 kt






- Airport Elevation : 1442 ft
- IATA code : LWS


KLWS - Lewiston Nez Perce County

CURRENT METAR :
  • 260256Z 03004KT 10SM OVC060 17/11 A3001 RMK AO2 SLP161 T01720111 56007 $

EXPIRED METARs :
  • 260156Z 00000KT 10SM OVC055 17/11 A3002 RMK AO2 SLP165 T01720111 $
  • 260056Z 17004KT 10SM BKN043 OVC070 17/11 A3001 RMK AO2 SLP163 T01720111 $

TAF KLWS
Valid from the 26 at 00:00 until the 27 at 00:00 UTC


252320Z 2600/2624 VRB04KT P6SM VCSH BKN070 OVC100
FM260200 18005KT P6SM OVC050
FM260600 VRB04KT P6SM BKN050
FM261000 VRB03KT P6SM OVC050
FM261800 32007KT P6SM SCT050
KZSE FIR / North America



MET'MAP, your aeronautical weather chart ! - Copyright ORBIFLY December 2007 - Disclaimer

ORBIFLY MET'MAP TEAM :

Programming & Development : Alexandra Zaïnal
Concept & original design : Baudouin d'Aumeries
Assistance for programming : Marc-Olivier Méhu
Technical & hardware support : Manuel Goepfert

Contact : metmap@orbifly.com




SOURCES & CREDITS :

   NOAA       Earth
Advisory